Terminal Aerodrome Forecast
Issued by NWS Upton, NY

Home | Current Version | Previous Version | Text Only | Print | Product List | Glossary On
Versions: 1 2 3 4 5 6 7 8 9 10 11 12 13 14 15 16 17 18 19 20 21 22 23 24 25 26 27 28 29 30 31 32 33 34 35 36
000
FTUS41 KOKX 291904 AAA
TAFLGA
TAF AMD
KLGA 291904Z 2919/3018 34014G23KT P6SM FEW040
     FM292300 33013KT P6SM FEW040
     FM300200 35010KT P6SM SKC
     FM301200 02007KT P6SM SCT200=

USA.gov is the U.S. government's official web portal to all federal, state and local government web resources and services.